createdAt,value
2022-12-17T00:00:46.992Z,38.90
2022-12-17T00:03:35.371Z,38.30
2022-12-17T00:06:22.309Z,39.60
2022-12-17T00:09:09.195Z,43.03
2022-12-17T00:11:56.114Z,32.10
2022-12-17T00:14:42.844Z,31.83
2022-12-17T00:17:29.215Z,36.80
2022-12-17T00:20:17.251Z,34.33
2022-12-17T00:23:03.809Z,34.30
2022-12-17T00:25:50.488Z,36.50
2022-12-17T00:28:36.975Z,32.57
2022-12-17T00:31:28.720Z,38.10
2022-12-17T00:34:15.158Z,37.03
2022-12-17T00:37:03.326Z,36.33
2022-12-17T00:39:50.945Z,36.50
2022-12-17T00:42:42.610Z,38.63
2022-12-17T00:45:29.133Z,42.07
2022-12-17T00:48:15.270Z,39.77
2022-12-17T00:51:01.841Z,43.63
2022-12-17T00:53:49.945Z,44.20
2022-12-17T00:56:36.266Z,42.43
2022-12-17T00:59:22.633Z,45.27
2022-12-17T01:02:09.342Z,42.63
2022-12-17T01:04:56.573Z,41.13
2022-12-17T01:07:44.019Z,42.10
2022-12-17T01:10:32.023Z,40.80
2022-12-17T01:13:18.710Z,43.03
2022-12-17T01:16:05.310Z,43.33
2022-12-17T01:18:51.851Z,43.13
2022-12-17T01:21:38.157Z,43.97
2022-12-17T01:24:25.155Z,45.77
2022-12-17T01:27:13.158Z,42.50
2022-12-17T01:29:59.813Z,42.47
2022-12-17T01:32:46.346Z,41.50
2022-12-17T01:35:32.886Z,42.33
2022-12-17T01:38:19.423Z,41.37
2022-12-17T01:41:10.490Z,42.90
2022-12-17T01:43:58.975Z,43.23
2022-12-17T01:46:48.381Z,43.63
2022-12-17T01:49:35.805Z,41.37
2022-12-17T01:52:23.567Z,45.03
2022-12-17T01:55:37.540Z,38.97
2022-12-17T01:58:23.978Z,47.27
2022-12-17T02:01:12.130Z,42.93
2022-12-17T02:04:13.387Z,39.97
2022-12-17T02:07:06.981Z,43.63
2022-12-17T02:10:01.362Z,39.00
2022-12-17T02:12:50.910Z,38.80
2022-12-17T02:15:42.365Z,39.10
2022-12-17T02:18:36.818Z,39.37
2022-12-17T02:21:37.422Z,40.57
2022-12-17T02:24:30.495Z,40.20
2022-12-17T02:27:22.861Z,44.80
2022-12-17T02:30:12.856Z,43.40
2022-12-17T02:33:01.626Z,41.80
2022-12-17T02:35:52.009Z,43.40
2022-12-17T02:38:40.742Z,38.83
2022-12-17T02:41:34.201Z,39.13
2022-12-17T02:44:23.308Z,44.70
2022-12-17T02:47:12.481Z,43.50
2022-12-17T02:50:02.024Z,38.50
2022-12-17T02:52:55.234Z,42.50
2022-12-17T02:55:41.798Z,42.13
2022-12-17T02:58:28.420Z,44.27
2022-12-17T03:01:16.283Z,41.97
2022-12-17T03:04:02.900Z,42.83
2022-12-17T03:06:49.759Z,43.37
2022-12-17T03:09:36.089Z,47.43
2022-12-17T03:12:23.486Z,43.37
2022-12-17T03:15:10.133Z,38.77
2022-12-17T03:17:59.875Z,45.00
2022-12-17T03:20:46.414Z,40.67
2022-12-17T03:23:33.395Z,45.77
2022-12-17T03:26:21.369Z,43.63
2022-12-17T03:29:08.162Z,41.20
2022-12-17T03:32:09.063Z,42.33
2022-12-17T03:34:53.345Z,43.43
2022-12-17T03:37:39.649Z,44.87
2022-12-17T03:40:26.382Z,42.50
2022-12-17T03:43:12.966Z,46.23
2022-12-17T03:45:59.763Z,43.50
2022-12-17T03:48:45.966Z,45.37
2022-12-17T03:51:32.918Z,41.57
2022-12-17T03:54:19.225Z,44.67
2022-12-17T03:57:05.589Z,45.40
2022-12-17T03:59:52.077Z,37.93
2022-12-17T04:02:38.798Z,29.80
2022-12-17T04:05:25.746Z,44.97
2022-12-17T04:08:13.620Z,45.70
2022-12-17T04:10:59.904Z,44.93
2022-12-17T04:13:46.278Z,45.40
2022-12-17T04:16:33.192Z,41.97
2022-12-17T04:19:16.065Z,33.23
2022-12-17T04:22:03.084Z,39.23
2022-12-17T04:24:50.530Z,40.27
2022-12-17T04:27:36.306Z,36.37
2022-12-17T04:30:23.299Z,41.00
2022-12-17T04:33:09.775Z,45.70
2022-12-17T04:35:56.144Z,40.53
2022-12-17T04:38:42.382Z,40.07
2022-12-17T04:41:30.121Z,35.33
2022-12-17T04:44:16.217Z,31.00
2022-12-17T04:47:02.603Z,41.23
2022-12-17T04:49:48.790Z,37.43
2022-12-17T04:52:35.075Z,40.43
2022-12-17T04:55:21.702Z,41.20
2022-12-17T04:58:08.988Z,39.53
2022-12-17T05:00:55.224Z,38.00
2022-12-17T05:03:42.141Z,33.37
2022-12-17T05:06:28.834Z,30.33
2022-12-17T05:09:15.037Z,37.43
2022-12-17T05:12:01.718Z,39.13
2022-12-17T05:14:49.657Z,36.87
2022-12-17T05:17:32.374Z,39.97
2022-12-17T05:20:18.925Z,35.17
2022-12-17T05:23:05.320Z,34.83
2022-12-17T05:25:51.645Z,39.73
2022-12-17T05:28:38.083Z,38.53
2022-12-17T05:31:25.422Z,38.53
2022-12-17T05:34:12.183Z,35.50
2022-12-17T05:37:10.092Z,33.50
2022-12-17T05:39:56.386Z,40.83
2022-12-17T05:42:45.359Z,33.83
2022-12-17T05:45:32.054Z,33.37
2022-12-17T05:48:20.140Z,35.03
2022-12-17T05:51:08.692Z,39.10
2022-12-17T05:53:55.491Z,39.57
2022-12-17T05:56:41.960Z,38.57
2022-12-17T05:59:28.261Z,37.97
2022-12-17T06:02:14.568Z,39.40
2022-12-17T06:05:02.685Z,34.57
2022-12-17T06:07:49.728Z,38.20
2022-12-17T06:10:36.168Z,37.27
2022-12-17T06:13:22.867Z,36.40
2022-12-17T06:16:09.103Z,36.27
2022-12-17T06:18:55.558Z,35.73
2022-12-17T06:21:43.120Z,40.30
2022-12-17T06:24:29.387Z,33.90
2022-12-17T06:27:15.962Z,37.40
2022-12-17T06:30:02.028Z,35.57
2022-12-17T06:32:48.615Z,34.70
2022-12-17T06:35:35.084Z,34.30
2022-12-17T06:38:23.956Z,31.20
2022-12-17T06:41:10.685Z,31.80
2022-12-17T06:43:57.244Z,35.03
2022-12-17T06:46:44.069Z,35.77
2022-12-17T06:49:30.652Z,35.87
2022-12-17T06:52:17.149Z,28.17
2022-12-17T06:55:04.989Z,27.10
2022-12-17T06:57:51.679Z,32.10
2022-12-17T07:00:38.440Z,33.33
2022-12-17T07:03:24.919Z,31.93
2022-12-17T07:06:19.942Z,31.00
2022-12-17T07:09:06.353Z,33.63
2022-12-17T07:11:54.088Z,31.23
2022-12-17T07:14:41.100Z,30.53
2022-12-17T07:17:27.900Z,25.63
2022-12-17T07:20:17.389Z,33.53
2022-12-17T07:23:03.857Z,31.43
2022-12-17T07:26:01.919Z,29.67
2022-12-17T07:28:51.468Z,30.80
2022-12-17T07:31:37.886Z,31.63
2022-12-17T07:34:25.691Z,29.17
2022-12-17T07:37:14.958Z,31.43
2022-12-17T07:40:05.055Z,32.97
2022-12-17T07:42:51.776Z,37.00
2022-12-17T07:45:39.569Z,33.33
2022-12-17T07:48:28.514Z,34.00
2022-12-17T07:51:15.110Z,35.60
2022-12-17T07:54:01.724Z,37.17
2022-12-17T07:56:56.973Z,32.97
2022-12-17T07:59:43.326Z,31.43
2022-12-17T08:02:31.380Z,37.93
2022-12-17T08:05:19.158Z,36.53
2022-12-17T08:08:05.719Z,27.17
2022-12-17T08:10:52.425Z,33.97
2022-12-17T08:13:49.807Z,32.87
2022-12-17T08:16:36.635Z,32.23
2022-12-17T08:19:24.278Z,29.40
2022-12-17T08:22:10.696Z,31.90
2022-12-17T08:24:58.741Z,28.13
2022-12-17T08:27:45.056Z,32.37
2022-12-17T08:30:33.939Z,28.27
2022-12-17T08:33:22.300Z,34.20
2022-12-17T08:36:14.410Z,27.07
2022-12-17T08:39:01.114Z,30.00
2022-12-17T08:41:53.990Z,16.33
2022-12-17T08:44:41.255Z,31.43
2022-12-17T08:47:30.244Z,32.00
2022-12-17T08:50:17.125Z,30.00
2022-12-17T08:53:04.584Z,29.03
2022-12-17T08:55:51.286Z,31.70
2022-12-17T08:58:37.973Z,30.30
2022-12-17T09:01:24.821Z,29.33
2022-12-17T09:04:11.523Z,27.30
2022-12-17T09:06:59.457Z,26.93
2022-12-17T09:09:47.611Z,27.20
2022-12-17T09:12:34.488Z,27.23
2022-12-17T09:15:20.735Z,19.57
2022-12-17T09:18:08.116Z,12.17
2022-12-17T09:20:56.474Z,25.70
2022-12-17T09:23:42.987Z,20.43
2022-12-17T09:26:33.434Z,25.03
2022-12-17T09:29:20.158Z,23.33
2022-12-17T09:32:06.728Z,23.53
2022-12-17T09:34:53.241Z,22.63
2022-12-17T09:37:39.515Z,23.37
2022-12-17T09:40:37.105Z,25.00
2022-12-17T09:43:31.000Z,19.07
2022-12-17T09:46:26.289Z,23.90
2022-12-17T09:49:20.303Z,19.73
2022-12-17T09:52:07.061Z,26.00
2022-12-17T09:55:01.119Z,24.63
2022-12-17T09:57:51.445Z,22.87
2022-12-17T10:00:40.939Z,22.80
2022-12-17T10:03:32.571Z,22.77
2022-12-17T10:06:25.513Z,11.67
2022-12-17T10:09:16.903Z,21.97
2022-12-17T10:12:04.147Z,17.13
2022-12-17T10:14:47.434Z,24.93
2022-12-17T10:17:38.421Z,24.00
2022-12-17T10:20:31.653Z,18.67
2022-12-17T10:23:19.318Z,22.87
2022-12-17T10:26:10.324Z,20.03
2022-12-17T10:29:02.204Z,21.63
2022-12-17T10:31:52.179Z,21.47
2022-12-17T10:34:40.775Z,21.50
2022-12-17T10:37:38.054Z,20.17
2022-12-17T10:40:42.973Z,22.90
2022-12-17T10:43:42.902Z,22.17
2022-12-17T10:46:29.263Z,18.20
2022-12-17T10:49:29.869Z,8.87
2022-12-17T10:52:40.932Z,18.93
2022-12-17T10:55:41.423Z,20.53
2022-12-17T10:58:32.638Z,20.30
2022-12-17T11:01:19.885Z,17.97
2022-12-17T11:04:10.511Z,18.80
2022-12-17T11:07:00.438Z,21.03
2022-12-17T11:10:03.733Z,20.23
2022-12-17T11:12:57.570Z,18.87
2022-12-17T11:15:46.736Z,18.23
2022-12-17T11:18:39.837Z,20.23
2022-12-17T11:21:30.767Z,20.80
2022-12-17T11:24:22.417Z,23.20
2022-12-17T11:27:14.851Z,17.80
2022-12-17T11:30:02.880Z,21.87
2022-12-17T11:33:13.481Z,19.87
2022-12-17T11:36:06.898Z,18.03
2022-12-17T11:38:57.485Z,19.97
2022-12-17T11:41:58.170Z,20.83
2022-12-17T11:44:58.952Z,18.03
2022-12-17T11:47:59.561Z,23.20
2022-12-17T11:50:53.186Z,15.83
2022-12-17T11:53:54.604Z,24.97
2022-12-17T11:56:46.091Z,23.40
2022-12-17T11:59:42.912Z,22.07
2022-12-17T12:02:40.773Z,18.27
2022-12-17T12:05:35.600Z,26.10
2022-12-17T12:08:38.234Z,21.80
2022-12-17T12:11:33.157Z,20.67
2022-12-17T12:14:27.319Z,21.90
2022-12-17T12:17:21.640Z,22.17
2022-12-17T12:20:12.000Z,20.07
2022-12-17T12:23:09.779Z,19.67
2022-12-17T12:26:00.382Z,24.97
2022-12-17T12:28:53.907Z,22.67
2022-12-17T12:31:49.199Z,23.57
2022-12-17T12:34:40.868Z,22.70
2022-12-17T12:37:35.583Z,23.23
2022-12-17T12:40:33.038Z,21.03
2022-12-17T12:43:22.918Z,22.73
2022-12-17T12:46:16.029Z,21.40
2022-12-17T12:49:05.116Z,19.63
2022-12-17T12:51:55.671Z,21.90
2022-12-17T12:54:51.941Z,22.23
2022-12-17T12:57:50.477Z,23.23
2022-12-17T13:00:47.806Z,18.47
2022-12-17T13:03:40.271Z,21.03
2022-12-17T13:06:09.484Z,18.87
2022-12-17T13:08:39.564Z,19.57
2022-12-17T13:57:49.762Z,23.23
2022-12-17T14:00:27.611Z,21.93
2022-12-17T14:07:31.971Z,20.37
2022-12-17T14:10:01.099Z,20.27
2022-12-17T14:12:30.400Z,22.17
2022-12-17T14:19:28.419Z,15.53
2022-12-17T14:21:57.914Z,19.50
2022-12-17T14:24:29.739Z,16.10
2022-12-17T14:27:00.673Z,16.37
2022-12-17T14:29:31.495Z,16.50
2022-12-17T14:32:02.721Z,19.07
2022-12-17T14:34:43.105Z,19.87
2022-12-17T14:37:20.532Z,17.77
2022-12-17T14:39:50.639Z,19.20
2022-12-17T14:42:29.972Z,20.17
2022-12-17T14:45:00.269Z,21.50
2022-12-17T14:47:31.667Z,17.23
2022-12-17T14:50:28.869Z,15.37
2022-12-17T14:52:59.405Z,17.87
2022-12-17T14:55:35.569Z,12.73
2022-12-17T14:58:18.631Z,16.73
2022-12-17T15:00:51.373Z,14.53
2022-12-17T15:03:24.271Z,15.33
2022-12-17T15:06:02.038Z,16.50
2022-12-17T15:08:34.517Z,14.43
2022-12-17T15:11:04.330Z,15.07
2022-12-17T15:13:34.118Z,17.67
2022-12-17T15:16:03.858Z,13.63
2022-12-17T15:18:33.460Z,17.60
2022-12-17T15:21:04.951Z,16.43
2022-12-17T15:23:34.735Z,18.10
2022-12-17T15:26:04.993Z,12.97
2022-12-17T15:28:34.628Z,12.77
2022-12-17T15:31:04.323Z,15.53
2022-12-17T15:33:33.819Z,13.63
2022-12-17T15:36:05.097Z,14.67
2022-12-17T15:38:34.962Z,13.43
2022-12-17T15:41:24.877Z,13.57
2022-12-17T15:43:53.081Z,18.10
2022-12-17T15:46:23.177Z,19.13
2022-12-17T15:48:52.953Z,17.73
2022-12-17T15:51:23.976Z,15.03
2022-12-17T15:53:55.427Z,15.87
2022-12-17T15:56:26.250Z,13.93
2022-12-17T15:58:56.043Z,16.00
2022-12-17T16:01:25.940Z,18.20
2022-12-17T16:03:55.733Z,15.03
2022-12-17T16:06:26.606Z,16.70
2022-12-17T16:08:56.101Z,16.43
2022-12-17T16:11:25.758Z,16.53
2022-12-17T16:13:59.678Z,14.37
2022-12-17T16:16:31.810Z,16.77
2022-12-17T16:19:02.737Z,14.00
2022-12-17T16:21:33.259Z,16.03
2022-12-17T16:24:02.614Z,15.63
2022-12-17T16:26:32.321Z,15.70
2022-12-17T16:29:01.655Z,15.80
2022-12-17T16:31:31.136Z,16.93
2022-12-17T16:34:03.005Z,14.37
2022-12-17T16:36:36.308Z,18.13
2022-12-17T16:39:06.117Z,13.80
2022-12-17T16:41:35.792Z,13.87
2022-12-17T16:44:10.565Z,12.67
2022-12-17T16:46:48.349Z,13.80
2022-12-17T16:49:21.752Z,11.33
2022-12-17T16:51:57.789Z,13.27
2022-12-17T16:54:29.274Z,10.83
2022-12-17T16:56:58.903Z,15.33
2022-12-17T16:59:28.823Z,15.03
2022-12-17T17:02:03.123Z,12.20
2022-12-17T17:04:32.709Z,12.07
2022-12-17T17:07:03.995Z,13.90
2022-12-17T17:09:34.663Z,14.57
2022-12-17T17:12:04.997Z,14.27
2022-12-17T17:14:35.244Z,16.10
2022-12-17T17:17:04.888Z,12.80
2022-12-17T17:19:34.813Z,14.80
2022-12-17T17:22:05.289Z,13.77
2022-12-17T17:24:34.773Z,14.17
2022-12-17T17:27:04.088Z,15.13
2022-12-17T17:29:33.612Z,14.67
2022-12-17T17:32:11.668Z,15.53
2022-12-17T17:34:44.881Z,13.53
2022-12-17T17:37:16.407Z,13.33
2022-12-17T17:39:46.556Z,11.33
2022-12-17T17:42:16.958Z,15.30
2022-12-17T17:44:47.265Z,13.93
2022-12-17T17:47:16.822Z,14.03
2022-12-17T17:49:46.816Z,13.80
2022-12-17T17:52:18.499Z,12.93
2022-12-17T17:54:50.292Z,14.57
2022-12-17T17:57:19.859Z,13.20
2022-12-17T17:59:49.194Z,13.20
2022-12-17T18:02:18.840Z,15.00
2022-12-17T18:04:48.939Z,12.93
2022-12-17T18:07:25.796Z,13.47
2022-12-17T18:09:55.453Z,14.10
2022-12-17T18:12:42.184Z,12.83
2022-12-17T18:15:15.334Z,15.53
2022-12-17T18:17:47.440Z,14.57
2022-12-17T18:20:17.234Z,13.93
2022-12-17T18:22:48.482Z,13.60
2022-12-17T18:25:18.734Z,14.20
2022-12-17T18:27:59.111Z,14.53
2022-12-17T18:30:28.336Z,14.03
2022-12-17T18:32:58.171Z,14.20
2022-12-17T18:35:27.951Z,12.23
2022-12-17T18:38:02.910Z,13.10
2022-12-17T18:40:35.198Z,12.17
2022-12-17T18:43:22.723Z,11.60
2022-12-17T18:45:52.159Z,16.03
2022-12-17T18:48:26.058Z,11.77
2022-12-17T18:51:02.719Z,15.07
2022-12-17T18:53:34.008Z,13.80
2022-12-17T18:56:09.037Z,12.90
2022-12-17T18:58:38.704Z,12.23
2022-12-17T19:01:08.190Z,13.90
2022-12-17T19:03:37.946Z,12.73
2022-12-17T19:06:08.492Z,11.97
2022-12-17T19:08:40.376Z,12.13
2022-12-17T19:11:19.480Z,14.10
2022-12-17T19:13:49.368Z,13.70
2022-12-17T19:16:21.430Z,11.77
2022-12-17T19:18:53.915Z,14.50
2022-12-17T19:21:23.812Z,8.63
2022-12-17T19:23:59.971Z,10.07
2022-12-17T19:26:30.582Z,11.73
2022-12-17T19:29:01.251Z,12.23
2022-12-17T19:31:32.666Z,11.33
2022-12-17T19:34:03.225Z,10.70
2022-12-17T19:36:34.370Z,10.03
2022-12-17T19:39:08.277Z,11.07
2022-12-17T19:41:37.794Z,10.17
2022-12-17T19:44:09.822Z,11.33
2022-12-17T19:46:39.206Z,9.40
2022-12-17T19:49:11.265Z,12.70
2022-12-17T19:51:41.755Z,9.73
2022-12-17T19:54:13.712Z,10.13
2022-12-17T19:56:43.657Z,11.07
2022-12-17T19:59:14.445Z,11.63
2022-12-17T20:01:45.894Z,9.37
2022-12-17T20:04:17.418Z,8.17
2022-12-17T20:06:47.958Z,10.07
2022-12-17T20:09:18.970Z,9.20
2022-12-17T20:11:48.929Z,11.20
2022-12-17T20:14:21.496Z,10.20
2022-12-17T20:16:52.199Z,10.87
2022-12-17T20:19:24.270Z,9.63
2022-12-17T20:21:54.511Z,10.97
2022-12-17T20:24:31.122Z,10.97
2022-12-17T20:27:01.893Z,8.97
2022-12-17T20:29:31.484Z,11.77
2022-12-17T20:32:01.318Z,12.37
2022-12-17T20:34:31.537Z,3.03
2022-12-17T20:37:01.357Z,7.87
2022-12-17T20:39:33.088Z,10.73
2022-12-17T20:42:02.769Z,10.77
2022-12-17T20:44:33.323Z,10.07
2022-12-17T20:47:03.624Z,10.83
2022-12-17T20:49:33.617Z,9.07
2022-12-17T20:52:03.330Z,9.97
2022-12-17T20:54:35.594Z,8.77
2022-12-17T20:57:17.430Z,11.43
2022-12-17T20:59:51.137Z,11.13
2022-12-17T21:02:25.811Z,11.40
2022-12-17T21:05:04.844Z,11.93
2022-12-17T21:07:49.781Z,10.67
2022-12-17T21:10:24.950Z,12.00
2022-12-17T21:13:25.954Z,10.23
2022-12-17T21:15:58.840Z,12.23
2022-12-17T21:18:34.277Z,12.20
2022-12-17T21:23:58.015Z,12.67
2022-12-17T21:26:37.849Z,10.07
2022-12-17T21:29:09.674Z,13.90
2022-12-17T21:31:40.950Z,12.80
2022-12-17T21:34:15.209Z,12.40
2022-12-17T21:36:45.385Z,12.47
2022-12-17T21:39:16.400Z,10.37
2022-12-17T21:42:08.964Z,12.47
2022-12-17T21:44:38.632Z,14.60
2022-12-17T21:47:08.401Z,14.23
2022-12-17T21:49:38.968Z,12.43
2022-12-17T21:52:11.272Z,12.10
2022-12-17T21:54:41.105Z,12.23
2022-12-17T21:57:12.414Z,13.27
2022-12-17T21:59:42.953Z,15.57
2022-12-17T22:02:13.335Z,14.70
2022-12-17T22:04:43.710Z,12.90
2022-12-17T22:07:15.936Z,14.43
2022-12-17T22:10:18.360Z,11.50
2022-12-17T22:13:02.045Z,11.67
2022-12-17T22:15:33.742Z,11.93
2022-12-17T22:18:16.040Z,13.17
2022-12-17T22:20:45.471Z,13.97
2022-12-17T22:23:16.230Z,16.47
2022-12-17T22:25:47.294Z,14.80
2022-12-17T22:28:20.839Z,15.87
2022-12-17T22:31:07.822Z,14.73
2022-12-17T22:34:07.542Z,16.53
2022-12-17T22:39:15.528Z,15.87
2022-12-17T22:43:21.644Z,14.13
2022-12-17T22:44:40.697Z,16.63
2022-12-17T22:45:16.589Z,15.60
2022-12-17T22:47:46.812Z,14.97
2022-12-17T22:50:16.462Z,15.60
2022-12-17T22:52:46.385Z,14.17
2022-12-17T22:55:16.198Z,12.10
2022-12-17T22:57:46.275Z,13.73
2022-12-17T23:00:22.224Z,13.23
2022-12-17T23:02:55.166Z,11.90
2022-12-17T23:05:26.469Z,12.80
2022-12-17T23:07:56.055Z,12.37
2022-12-17T23:10:27.050Z,11.07
2022-12-17T23:12:57.467Z,11.63
2022-12-17T23:15:35.088Z,11.87
2022-12-17T23:18:08.333Z,13.47
2022-12-17T23:20:38.143Z,10.27
2022-12-17T23:23:07.245Z,11.77
2022-12-17T23:25:37.145Z,11.77
2022-12-17T23:28:07.333Z,12.10
2022-12-17T23:30:38.490Z,10.37
2022-12-17T23:33:08.180Z,10.03
2022-12-17T23:35:37.586Z,12.03
2022-12-17T23:38:07.125Z,11.03
2022-12-17T23:40:36.927Z,11.87
2022-12-17T23:43:06.446Z,12.73
2022-12-17T23:45:35.825Z,12.20
2022-12-17T23:48:08.471Z,9.47
2022-12-17T23:50:38.151Z,11.10
2022-12-17T23:53:07.511Z,11.20
2022-12-17T23:55:37.098Z,10.43
2022-12-17T23:58:06.870Z,10.40
